createdAt,value
2023-03-06T00:00:34.485Z,10.43
2023-03-06T00:03:16.159Z,10.75
2023-03-06T00:05:44.024Z,9.02
2023-03-06T00:08:12.270Z,12.00
2023-03-06T00:10:40.383Z,10.63
2023-03-06T00:13:11.622Z,10.38
2023-03-06T00:15:38.939Z,9.18
2023-03-06T00:18:06.951Z,9.73
2023-03-06T00:20:35.499Z,9.23
2023-03-06T00:23:03.034Z,10.48
2023-03-06T00:25:30.387Z,11.40
2023-03-06T00:27:58.065Z,10.95
2023-03-06T00:30:25.683Z,12.68
2023-03-06T00:32:53.616Z,9.55
2023-03-06T00:35:20.975Z,12.98
2023-03-06T00:37:48.808Z,8.10
2023-03-06T00:40:20.362Z,11.35
2023-03-06T00:42:47.987Z,10.25
2023-03-06T00:45:15.653Z,10.60
2023-03-06T00:47:43.856Z,9.35
2023-03-06T00:50:11.599Z,13.63
2023-03-06T00:52:39.515Z,9.95
2023-03-06T00:55:10.205Z,9.38
2023-03-06T00:57:38.104Z,9.27
2023-03-06T01:00:07.941Z,10.15
2023-03-06T01:02:35.561Z,10.35
2023-03-06T01:05:03.068Z,9.68
2023-03-06T01:07:33.932Z,10.32
2023-03-06T01:10:01.127Z,9.27
2023-03-06T01:12:28.667Z,9.30
2023-03-06T01:14:55.924Z,9.23
2023-03-06T01:17:24.025Z,12.43
2023-03-06T01:19:51.211Z,8.23
2023-03-06T01:22:18.992Z,9.82
2023-03-06T01:24:46.243Z,11.27
2023-03-06T01:27:13.814Z,9.35
2023-03-06T01:29:41.096Z,8.32
2023-03-06T01:32:08.748Z,9.68
2023-03-06T01:34:36.062Z,8.18
2023-03-06T01:37:03.568Z,9.98
2023-03-06T01:39:31.589Z,9.63
2023-03-06T01:41:59.128Z,9.05
2023-03-06T01:44:26.539Z,8.48
2023-03-06T01:46:55.051Z,8.88
2023-03-06T01:49:30.296Z,9.60
2023-03-06T01:52:24.102Z,8.18
2023-03-06T01:55:01.784Z,8.80
2023-03-06T01:57:35.114Z,9.98
2023-03-06T02:00:08.891Z,10.70
2023-03-06T02:02:37.488Z,8.82
2023-03-06T02:05:05.957Z,8.38
2023-03-06T02:07:34.987Z,10.02
2023-03-06T02:10:02.433Z,9.48
2023-03-06T02:12:30.333Z,8.93
2023-03-06T02:14:58.648Z,9.82
2023-03-06T02:17:27.564Z,11.52
2023-03-06T02:20:13.353Z,9.90
2023-03-06T02:22:49.902Z,9.32
2023-03-06T02:25:32.778Z,8.73
2023-03-06T02:28:01.170Z,9.25
2023-03-06T02:30:29.909Z,9.77
2023-03-06T02:32:58.328Z,9.95
2023-03-06T02:35:31.720Z,9.27
2023-03-06T02:38:04.635Z,9.85
2023-03-06T02:40:32.130Z,8.45
2023-03-06T02:43:00.043Z,8.85
2023-03-06T02:45:33.778Z,11.07
2023-03-06T02:48:01.333Z,9.93
2023-03-06T02:50:29.075Z,9.65
2023-03-06T02:52:56.606Z,11.32
2023-03-06T02:55:23.903Z,10.30
2023-03-06T02:57:51.854Z,11.05
2023-03-06T03:00:19.716Z,11.13
2023-03-06T03:02:48.184Z,11.23
2023-03-06T03:05:15.689Z,12.85
2023-03-06T03:07:43.771Z,10.68
2023-03-06T03:10:12.304Z,9.70
2023-03-06T03:12:40.432Z,12.63
2023-03-06T03:15:08.855Z,8.95
2023-03-06T03:17:40.965Z,12.10
2023-03-06T03:20:12.491Z,11.98
2023-03-06T03:22:40.245Z,11.02
2023-03-06T03:25:08.619Z,12.20
2023-03-06T03:27:36.092Z,12.20
2023-03-06T03:30:04.418Z,11.18
2023-03-06T03:32:31.998Z,11.95
2023-03-06T03:34:59.433Z,12.57
2023-03-06T03:37:26.951Z,11.68
2023-03-06T03:39:54.300Z,10.00
2023-03-06T03:42:21.898Z,11.10
2023-03-06T03:44:49.902Z,10.13
2023-03-06T03:47:17.504Z,10.75
2023-03-06T03:49:44.872Z,12.40
2023-03-06T03:52:12.332Z,13.40
2023-03-06T03:54:39.570Z,12.25
2023-03-06T03:57:07.183Z,13.45
2023-03-06T03:59:34.419Z,13.30
2023-03-06T04:02:04.708Z,12.63
2023-03-06T04:04:32.170Z,14.73
2023-03-06T04:07:00.573Z,12.95
2023-03-06T04:09:27.981Z,12.23
2023-03-06T04:11:55.860Z,11.68
2023-03-06T04:14:23.212Z,11.10
2023-03-06T04:16:50.800Z,14.43
2023-03-06T04:19:18.168Z,14.63
2023-03-06T04:21:45.714Z,13.00
2023-03-06T04:24:13.147Z,16.98
2023-03-06T04:26:40.639Z,15.18
2023-03-06T04:29:08.052Z,14.13
2023-03-06T04:31:35.679Z,12.65
2023-03-06T04:34:02.942Z,16.42
2023-03-06T04:36:32.911Z,16.27
2023-03-06T04:39:01.115Z,15.43
2023-03-06T04:41:28.940Z,15.23
2023-03-06T04:43:56.374Z,11.02
2023-03-06T04:46:23.904Z,14.07
2023-03-06T04:48:51.223Z,13.88
2023-03-06T04:51:18.794Z,13.95
2023-03-06T04:53:46.925Z,12.85
2023-03-06T04:56:14.446Z,13.10
2023-03-06T04:58:43.387Z,15.45
2023-03-06T05:01:12.035Z,11.00
2023-03-06T05:03:39.321Z,16.80
2023-03-06T05:06:07.198Z,14.20
2023-03-06T05:08:34.475Z,12.02
2023-03-06T05:11:02.904Z,11.18
2023-03-06T05:13:30.168Z,12.80
2023-03-06T05:16:02.887Z,16.30
2023-03-06T05:18:30.389Z,13.55
2023-03-06T05:20:59.900Z,12.60
2023-03-06T05:23:28.729Z,11.32
2023-03-06T05:25:56.963Z,10.98
2023-03-06T05:28:25.897Z,12.18
2023-03-06T05:30:53.437Z,12.80
2023-03-06T05:33:20.876Z,17.30
2023-03-06T05:35:49.032Z,12.05
2023-03-06T05:38:17.136Z,12.07
2023-03-06T05:40:45.457Z,15.15
2023-03-06T05:43:13.016Z,14.10
2023-03-06T05:45:40.979Z,13.23
2023-03-06T05:48:13.542Z,13.10
2023-03-06T05:50:41.094Z,12.40
2023-03-06T05:53:08.408Z,13.90
2023-03-06T05:55:36.715Z,13.73
2023-03-06T05:58:04.142Z,14.10
2023-03-06T06:00:31.765Z,12.35
2023-03-06T06:03:01.279Z,18.20
2023-03-06T06:05:29.441Z,10.43
2023-03-06T06:07:56.751Z,12.35
2023-03-06T06:10:24.319Z,14.93
2023-03-06T06:12:51.604Z,21.20
2023-03-06T06:15:19.111Z,21.15
2023-03-06T06:17:46.869Z,17.92
2023-03-06T06:20:14.824Z,23.83
2023-03-06T06:22:42.272Z,21.13
2023-03-06T06:25:10.108Z,18.90
2023-03-06T06:27:37.395Z,31.23
2023-03-06T06:30:06.591Z,28.25
2023-03-06T06:32:34.525Z,34.35
2023-03-06T06:35:02.153Z,36.95
2023-03-06T06:37:29.636Z,35.30
2023-03-06T06:39:57.357Z,28.83
2023-03-06T06:42:39.013Z,32.60
2023-03-06T06:45:11.245Z,29.65
2023-03-06T06:47:41.283Z,29.75
2023-03-06T06:50:12.918Z,30.40
2023-03-06T06:52:40.444Z,34.53
2023-03-06T06:55:08.764Z,32.45
2023-03-06T06:57:36.076Z,33.97
2023-03-06T07:00:05.432Z,38.88
2023-03-06T07:02:32.889Z,31.88
2023-03-06T07:05:04.713Z,32.72
2023-03-06T07:07:37.551Z,36.72
2023-03-06T07:10:07.748Z,31.50
2023-03-06T07:12:35.288Z,30.33
2023-03-06T07:15:04.800Z,26.58
2023-03-06T07:17:32.018Z,30.42
2023-03-06T07:19:59.932Z,29.63
2023-03-06T07:22:28.147Z,29.05
2023-03-06T07:24:56.628Z,26.70
2023-03-06T07:27:26.062Z,27.98
2023-03-06T07:29:53.585Z,27.05
2023-03-06T07:32:21.064Z,25.95
2023-03-06T07:34:48.996Z,32.70
2023-03-06T07:37:16.436Z,26.95
2023-03-06T07:39:44.664Z,22.77
2023-03-06T07:42:13.936Z,22.63
2023-03-06T07:44:41.519Z,22.52
2023-03-06T07:47:08.880Z,25.15
2023-03-06T07:49:37.300Z,28.30
2023-03-06T07:52:04.811Z,25.40
2023-03-06T07:54:32.657Z,25.70
2023-03-06T07:56:59.990Z,21.85
2023-03-06T07:59:28.855Z,19.73
2023-03-06T08:01:56.932Z,19.98
2023-03-06T08:04:24.440Z,22.60
2023-03-06T08:06:53.460Z,25.02
2023-03-06T08:09:20.964Z,23.42
2023-03-06T08:11:49.364Z,20.45
2023-03-06T08:14:16.913Z,17.85
2023-03-06T08:16:44.254Z,20.90
2023-03-06T08:19:11.833Z,19.90
2023-03-06T08:21:39.045Z,17.88
2023-03-06T08:24:07.566Z,21.90
2023-03-06T08:26:35.732Z,20.95
2023-03-06T08:29:03.731Z,22.58
2023-03-06T08:31:36.226Z,19.25
2023-03-06T08:34:12.529Z,19.25
2023-03-06T08:36:40.091Z,20.75
2023-03-06T08:39:08.674Z,20.23
2023-03-06T08:41:37.173Z,19.38
2023-03-06T08:44:05.412Z,16.70
2023-03-06T08:46:33.987Z,18.02
2023-03-06T08:49:01.902Z,20.30
2023-03-06T08:51:29.212Z,23.02
2023-03-06T08:53:57.978Z,21.75
2023-03-06T08:56:33.652Z,17.58
2023-03-06T08:59:03.839Z,16.90
2023-03-06T09:01:34.669Z,16.60
2023-03-06T09:04:06.435Z,18.98
2023-03-06T09:06:37.384Z,17.85
2023-03-06T09:09:05.919Z,17.85
2023-03-06T09:11:33.725Z,15.05
2023-03-06T09:14:01.496Z,16.33
2023-03-06T09:16:28.915Z,15.18
2023-03-06T09:18:57.782Z,15.43
2023-03-06T09:21:27.209Z,18.65
2023-03-06T09:23:55.242Z,14.93
2023-03-06T09:26:27.996Z,14.75
2023-03-06T09:29:00.568Z,14.38
2023-03-06T09:31:28.310Z,16.23
2023-03-06T09:33:56.724Z,14.45
2023-03-06T09:36:24.028Z,14.85
2023-03-06T09:38:51.570Z,15.60
2023-03-06T09:41:33.348Z,14.93
2023-03-06T09:44:08.594Z,15.60
2023-03-06T09:49:45.486Z,13.75
2023-03-06T09:52:40.714Z,15.95
2023-03-06T09:55:13.331Z,12.90
2023-03-06T09:58:11.338Z,13.45
2023-03-06T10:00:44.323Z,13.07
2023-03-06T10:03:31.019Z,13.30
2023-03-06T10:06:11.371Z,17.02
2023-03-06T10:08:49.960Z,15.27
2023-03-06T10:11:24.851Z,14.45
2023-03-06T10:14:12.107Z,12.57
2023-03-06T10:16:40.243Z,12.50
2023-03-06T10:19:14.370Z,11.57
2023-03-06T10:22:06.132Z,13.00
2023-03-06T10:24:46.359Z,13.13
2023-03-06T10:27:45.810Z,13.68
2023-03-06T10:30:33.859Z,11.80
2023-03-06T10:33:17.367Z,10.65
2023-03-06T10:35:48.205Z,15.07
2023-03-06T10:38:24.788Z,12.82
2023-03-06T10:41:01.215Z,13.13
2023-03-06T10:43:28.715Z,12.50
2023-03-06T10:45:56.089Z,11.10
2023-03-06T10:48:26.620Z,10.00
2023-03-06T10:51:22.250Z,12.30
2023-03-06T10:56:37.039Z,12.30
2023-03-06T10:59:07.239Z,11.93
2023-03-06T11:01:36.036Z,12.02
2023-03-06T11:04:22.678Z,13.85
2023-03-06T11:07:19.820Z,10.75
2023-03-06T11:10:15.645Z,10.13
2023-03-06T11:12:43.774Z,12.10
2023-03-06T11:15:23.341Z,11.60
2023-03-06T11:17:57.569Z,10.85
2023-03-06T11:20:55.600Z,10.35
2023-03-06T11:23:37.081Z,10.82
2023-03-06T11:26:04.935Z,10.38
2023-03-06T11:28:40.793Z,9.52
2023-03-06T11:31:14.072Z,10.00
2023-03-06T11:33:50.188Z,10.90
2023-03-06T11:36:43.876Z,7.72
2023-03-06T11:39:37.074Z,9.75
2023-03-06T11:42:43.121Z,10.38
2023-03-06T11:45:37.141Z,9.95
2023-03-06T11:48:38.088Z,10.50
2023-03-06T11:51:11.211Z,11.80
2023-03-06T11:53:40.118Z,9.60
2023-03-06T11:56:19.324Z,8.52
2023-03-06T11:59:30.193Z,10.10
2023-03-06T12:02:11.975Z,9.18
2023-03-06T12:05:07.328Z,9.40
2023-03-06T12:07:34.623Z,8.68
2023-03-06T12:10:20.228Z,9.57
2023-03-06T12:12:57.144Z,8.95
2023-03-06T12:15:50.310Z,7.97
2023-03-06T12:18:29.723Z,9.18
2023-03-06T12:21:07.141Z,9.50
2023-03-06T12:24:12.539Z,9.48
2023-03-06T12:27:01.686Z,8.02
2023-03-06T12:29:53.621Z,7.70
2023-03-06T12:32:59.683Z,6.85
2023-03-06T12:38:22.492Z,7.97
2023-03-06T12:41:22.822Z,6.82
2023-03-06T12:43:58.592Z,8.25
2023-03-06T12:46:27.998Z,9.15
2023-03-06T12:49:05.364Z,8.95
2023-03-06T12:51:34.375Z,9.43
2023-03-06T12:54:03.244Z,6.68
2023-03-06T12:56:32.269Z,7.65
2023-03-06T12:59:03.394Z,8.27
2023-03-06T13:02:13.254Z,8.85
2023-03-06T13:05:06.243Z,9.70
2023-03-06T13:07:49.083Z,8.50
2023-03-06T13:10:33.688Z,8.73
2023-03-06T13:13:26.525Z,6.97
2023-03-06T13:16:18.639Z,7.75
2023-03-06T13:18:51.349Z,8.30
2023-03-06T13:21:44.303Z,8.52
2023-03-06T13:24:23.529Z,6.13
2023-03-06T13:26:58.388Z,7.32
2023-03-06T13:29:37.732Z,6.80
2023-03-06T13:32:17.026Z,8.73
2023-03-06T13:34:49.958Z,7.25
2023-03-06T13:37:17.475Z,5.85
2023-03-06T13:39:59.905Z,7.38
2023-03-06T13:42:30.529Z,8.98
2023-03-06T13:45:08.903Z,6.65
2023-03-06T13:50:44.399Z,7.95
2023-03-06T13:53:40.734Z,6.20
2023-03-06T13:56:25.140Z,8.98
2023-03-06T13:59:29.681Z,9.30
2023-03-06T14:02:22.609Z,6.50
2023-03-06T14:04:57.901Z,7.30
2023-03-06T14:07:30.904Z,7.53
2023-03-06T14:10:01.144Z,6.47
2023-03-06T14:12:34.024Z,5.95
2023-03-06T14:15:15.760Z,6.15
2023-03-06T14:18:01.934Z,5.63
2023-03-06T14:20:43.861Z,6.07
2023-03-06T14:23:23.379Z,6.25
2023-03-06T14:26:00.784Z,6.18
2023-03-06T14:28:30.822Z,8.13
2023-03-06T14:31:00.359Z,6.65
2023-03-06T14:33:50.308Z,6.40
2023-03-06T14:36:20.823Z,7.18
2023-03-06T14:38:58.189Z,8.55
2023-03-06T14:41:34.542Z,8.35
2023-03-06T14:44:23.147Z,5.72
2023-03-06T14:46:51.986Z,6.97
2023-03-06T14:49:21.710Z,9.50
2023-03-06T14:51:51.976Z,5.82
2023-03-06T14:54:23.417Z,11.05
2023-03-06T14:56:53.577Z,7.10
2023-03-06T14:59:26.537Z,5.65
2023-03-06T15:02:01.046Z,6.60
2023-03-06T15:04:44.387Z,8.50
2023-03-06T15:07:17.643Z,5.78
2023-03-06T15:09:49.240Z,10.52
2023-03-06T15:12:20.865Z,5.78
2023-03-06T15:14:59.012Z,6.00
2023-03-06T15:17:30.750Z,7.00
2023-03-06T15:20:00.266Z,6.55
2023-03-06T15:22:43.441Z,4.78
2023-03-06T15:25:27.282Z,6.38
2023-03-06T15:28:00.557Z,6.22
2023-03-06T15:30:34.461Z,6.10
2023-03-06T15:33:22.043Z,6.90
2023-03-06T15:36:00.788Z,10.73
2023-03-06T15:38:42.351Z,7.25
2023-03-06T15:41:32.374Z,8.52
2023-03-06T15:44:01.580Z,9.02
2023-03-06T15:46:29.747Z,11.32
2023-03-06T15:49:01.111Z,10.07
2023-03-06T15:51:29.881Z,11.38
2023-03-06T15:54:09.866Z,10.05
2023-03-06T15:56:41.747Z,15.48
2023-03-06T15:59:21.787Z,9.85
2023-03-06T16:01:50.556Z,10.32
2023-03-06T16:04:19.796Z,7.88
2023-03-06T16:06:47.162Z,11.13
2023-03-06T16:09:14.713Z,11.02
2023-03-06T16:11:44.773Z,11.20
2023-03-06T16:14:21.303Z,10.98
2023-03-06T16:16:49.918Z,9.07
2023-03-06T16:19:28.201Z,14.98
2023-03-06T16:21:57.366Z,9.82
2023-03-06T16:24:26.251Z,7.28
2023-03-06T16:26:54.880Z,8.38
2023-03-06T16:29:25.887Z,9.30
2023-03-06T16:31:55.453Z,14.10
2023-03-06T16:34:23.516Z,8.70
2023-03-06T16:36:51.469Z,6.95
2023-03-06T16:39:21.762Z,10.45
2023-03-06T16:41:50.482Z,10.20
2023-03-06T16:44:18.821Z,7.35
2023-03-06T16:46:48.763Z,10.02
2023-03-06T16:49:23.829Z,10.75
2023-03-06T16:51:51.770Z,10.20
2023-03-06T16:54:20.235Z,11.93
2023-03-06T16:56:47.519Z,8.75
2023-03-06T16:59:15.059Z,8.18
2023-03-06T17:01:43.368Z,7.43
2023-03-06T17:04:11.321Z,9.60
2023-03-06T17:06:39.667Z,7.10
2023-03-06T17:09:07.559Z,6.50
2023-03-06T17:11:38.513Z,9.35
2023-03-06T17:14:06.932Z,5.28
2023-03-06T17:16:36.469Z,5.75
2023-03-06T17:19:05.471Z,7.07
2023-03-06T17:21:35.344Z,8.07
2023-03-06T17:24:03.734Z,6.80
2023-03-06T17:26:32.726Z,8.27
2023-03-06T17:29:00.303Z,7.97
2023-03-06T17:31:28.713Z,7.10
2023-03-06T17:34:00.483Z,5.95
2023-03-06T17:36:29.016Z,8.85
2023-03-06T17:38:58.638Z,7.00
2023-03-06T17:41:26.325Z,7.25
2023-03-06T17:43:58.181Z,7.55
2023-03-06T17:46:25.948Z,8.30
2023-03-06T17:48:54.708Z,8.02
2023-03-06T17:51:22.064Z,7.47
2023-03-06T17:53:49.711Z,5.82
2023-03-06T17:56:17.067Z,6.55
2023-03-06T17:58:44.966Z,6.53
2023-03-06T18:01:20.908Z,6.70
2023-03-06T18:03:50.249Z,9.07
2023-03-06T18:06:18.756Z,5.72
2023-03-06T18:08:46.826Z,7.30
2023-03-06T18:11:14.730Z,6.72
2023-03-06T18:13:44.908Z,6.32
2023-03-06T18:16:14.510Z,6.10
2023-03-06T18:18:42.280Z,7.45
2023-03-06T18:21:12.704Z,6.38
2023-03-06T18:23:41.609Z,6.60
2023-03-06T18:26:18.601Z,5.68
2023-03-06T18:28:48.680Z,6.82
2023-03-06T18:31:17.137Z,6.93
2023-03-06T18:33:47.629Z,6.07
2023-03-06T18:36:15.881Z,7.00
2023-03-06T18:38:45.441Z,6.70
2023-03-06T18:41:13.513Z,7.00
2023-03-06T18:43:42.331Z,6.47
2023-03-06T18:46:10.090Z,7.28
2023-03-06T18:48:37.976Z,6.75
2023-03-06T18:51:10.404Z,7.20
2023-03-06T18:53:39.945Z,6.72
2023-03-06T18:56:10.550Z,7.18
2023-03-06T18:58:37.998Z,6.60
2023-03-06T19:01:07.255Z,5.47
2023-03-06T19:03:35.258Z,5.07
2023-03-06T19:06:09.270Z,6.43
2023-03-06T19:08:38.637Z,8.30
2023-03-06T19:11:08.453Z,7.82
2023-03-06T19:13:36.902Z,5.60
2023-03-06T19:16:05.444Z,6.82
2023-03-06T19:18:33.421Z,6.68
2023-03-06T19:21:11.765Z,5.75
2023-03-06T19:23:39.545Z,6.97
2023-03-06T19:26:07.682Z,6.80
2023-03-06T19:28:37.571Z,6.68
2023-03-06T19:31:13.381Z,7.35
2023-03-06T19:33:42.485Z,6.38
2023-03-06T19:36:12.287Z,6.15
2023-03-06T19:38:40.524Z,7.20
2023-03-06T19:41:13.590Z,6.05
2023-03-06T19:43:42.655Z,7.07
2023-03-06T19:46:13.901Z,6.40
2023-03-06T19:48:42.294Z,5.95
2023-03-06T19:51:10.712Z,6.30
2023-03-06T19:53:39.811Z,5.72
2023-03-06T19:56:08.556Z,6.13
2023-03-06T19:58:36.033Z,5.80
2023-03-06T20:01:09.935Z,7.60
2023-03-06T20:03:37.448Z,7.22
2023-03-06T20:06:09.163Z,8.77
2023-03-06T20:08:36.783Z,6.65
2023-03-06T20:11:04.598Z,7.10
2023-03-06T20:13:31.896Z,6.57
2023-03-06T20:16:02.879Z,7.63
2023-03-06T20:18:30.205Z,6.32
2023-03-06T20:21:02.276Z,7.15
2023-03-06T20:23:30.258Z,7.15
2023-03-06T20:26:09.658Z,6.72
2023-03-06T20:28:39.318Z,9.25
2023-03-06T20:31:11.642Z,6.68
2023-03-06T20:33:39.633Z,8.45
2023-03-06T20:36:16.008Z,7.72
2023-03-06T20:38:44.229Z,10.25
2023-03-06T20:41:20.397Z,7.88
2023-03-06T20:43:48.249Z,10.45
2023-03-06T20:46:16.374Z,9.93
2023-03-06T20:48:44.145Z,8.27
2023-03-06T20:51:14.616Z,8.20
2023-03-06T20:53:41.854Z,8.38
2023-03-06T20:56:13.827Z,8.40
2023-03-06T20:58:41.207Z,8.15
2023-03-06T21:01:08.907Z,8.13
2023-03-06T21:03:36.793Z,8.30
2023-03-06T21:06:05.653Z,11.40
2023-03-06T21:08:32.971Z,7.47
2023-03-06T21:11:00.483Z,7.70
2023-03-06T21:13:28.162Z,8.73
2023-03-06T21:15:55.735Z,7.65
2023-03-06T21:18:23.252Z,9.32
2023-03-06T21:20:50.914Z,9.68
2023-03-06T21:23:18.175Z,9.85
2023-03-06T21:25:50.245Z,9.05
2023-03-06T21:28:18.343Z,11.20
2023-03-06T21:30:46.219Z,9.55
2023-03-06T21:33:16.064Z,8.52
2023-03-06T21:35:45.424Z,8.80
2023-03-06T21:38:14.126Z,12.18
2023-03-06T21:40:42.647Z,8.98
2023-03-06T21:43:10.374Z,9.27
2023-03-06T21:45:38.088Z,8.98
2023-03-06T21:48:05.616Z,7.85
2023-03-06T21:50:33.547Z,9.02
2023-03-06T21:53:00.937Z,8.07
2023-03-06T21:55:28.541Z,8.88
2023-03-06T21:57:56.363Z,9.75
2023-03-06T22:00:25.658Z,10.15
2023-03-06T22:02:53.090Z,11.07
2023-03-06T22:05:20.694Z,9.73
2023-03-06T22:07:49.573Z,9.68
2023-03-06T22:10:17.273Z,10.05
2023-03-06T22:12:45.806Z,8.68
2023-03-06T22:15:13.321Z,10.82
2023-03-06T22:17:41.552Z,14.77
2023-03-06T22:20:09.948Z,8.30
2023-03-06T22:22:37.268Z,11.60
2023-03-06T22:25:05.149Z,9.25
2023-03-06T22:27:32.745Z,10.40
2023-03-06T22:30:00.723Z,12.48
2023-03-06T22:32:28.050Z,10.77
2023-03-06T22:34:55.639Z,10.32
2023-03-06T22:37:22.857Z,8.68
2023-03-06T22:39:50.362Z,9.80
2023-03-06T22:42:17.562Z,9.75
2023-03-06T22:44:45.199Z,9.77
2023-03-06T22:47:12.564Z,11.00
2023-03-06T22:49:40.208Z,11.95
2023-03-06T22:52:07.437Z,9.20
2023-03-06T22:54:34.925Z,8.00
2023-03-06T22:57:02.155Z,10.48
2023-03-06T22:59:29.707Z,9.55
2023-03-06T23:01:58.498Z,13.05
2023-03-06T23:04:26.066Z,10.80
2023-03-06T23:06:53.312Z,11.60
2023-03-06T23:09:22.346Z,10.18
2023-03-06T23:11:50.234Z,10.50
2023-03-06T23:14:19.503Z,12.65
2023-03-06T23:16:46.816Z,11.18
2023-03-06T23:19:14.379Z,11.52
2023-03-06T23:21:41.811Z,13.10
2023-03-06T23:24:09.500Z,13.35
2023-03-06T23:26:37.059Z,12.45
2023-03-06T23:29:04.591Z,10.25
2023-03-06T23:31:32.209Z,16.20
2023-03-06T23:34:02.141Z,11.70
2023-03-06T23:36:30.413Z,15.00
2023-03-06T23:38:58.713Z,13.43
2023-03-06T23:41:26.085Z,15.75
2023-03-06T23:43:55.278Z,12.73
2023-03-06T23:46:22.730Z,13.57
2023-03-06T23:48:50.535Z,15.52
2023-03-06T23:51:21.696Z,14.43
2023-03-06T23:53:55.704Z,16.58
2023-03-06T23:56:24.596Z,16.20
2023-03-06T23:58:52.405Z,16.77
